createdAt,value
2023-02-02T00:01:02.769Z,26.90
2023-02-02T00:03:32.839Z,27.33
2023-02-02T00:06:01.255Z,27.52
2023-02-02T00:08:31.139Z,27.92
2023-02-02T00:10:59.742Z,30.65
2023-02-02T00:13:28.239Z,27.77
2023-02-02T00:16:01.936Z,26.92
2023-02-02T00:18:30.510Z,29.52
2023-02-02T00:21:06.629Z,26.88
2023-02-02T00:23:35.083Z,27.40
2023-02-02T00:26:03.653Z,30.00
2023-02-02T00:28:33.406Z,25.35
2023-02-02T00:31:03.398Z,26.83
2023-02-02T00:33:32.367Z,25.35
2023-02-02T00:36:01.161Z,26.40
2023-02-02T00:38:30.222Z,28.70
2023-02-02T00:40:58.780Z,25.02
2023-02-02T00:43:29.142Z,27.98
2023-02-02T00:45:56.698Z,29.20
2023-02-02T00:50:59.428Z,28.20
2023-02-02T00:53:29.329Z,26.83
2023-02-02T00:55:57.808Z,25.38
2023-02-02T00:58:26.609Z,26.95
2023-02-02T01:00:55.386Z,23.50
2023-02-02T01:03:23.837Z,21.48
2023-02-02T01:05:53.709Z,24.05
2023-02-02T01:08:22.310Z,23.95
2023-02-02T01:10:50.820Z,23.92
2023-02-02T01:13:19.273Z,21.05
2023-02-02T01:15:48.001Z,23.02
2023-02-02T01:18:16.550Z,23.50
2023-02-02T01:20:45.027Z,22.88
2023-02-02T01:23:14.974Z,21.00
2023-02-02T01:25:44.608Z,18.33
2023-02-02T01:28:14.826Z,18.88
2023-02-02T01:30:45.102Z,20.63
2023-02-02T01:33:14.115Z,18.45
2023-02-02T01:35:47.158Z,19.38
2023-02-02T01:38:17.558Z,17.55
2023-02-02T01:40:47.572Z,20.02
2023-02-02T01:43:25.804Z,20.10
2023-02-02T01:45:56.854Z,18.30
2023-02-02T01:48:29.963Z,20.80
2023-02-02T01:51:04.991Z,20.40
2023-02-02T01:53:36.611Z,20.27
2023-02-02T01:56:09.418Z,20.75
2023-02-02T01:58:42.369Z,24.55
2023-02-02T02:01:12.263Z,22.23
2023-02-02T02:03:40.994Z,26.05
2023-02-02T02:06:14.542Z,25.85
2023-02-02T02:08:52.321Z,24.70
2023-02-02T02:11:21.776Z,27.27
2023-02-02T02:14:10.558Z,24.15
2023-02-02T02:17:11.903Z,23.20
2023-02-02T02:20:27.732Z,26.25
2023-02-02T02:23:59.352Z,28.98
2023-02-02T02:26:48.181Z,29.13
2023-02-02T02:29:50.131Z,25.60
2023-02-02T02:32:38.568Z,32.50
2023-02-02T02:35:13.943Z,26.10
2023-02-02T02:37:50.694Z,27.00
2023-02-02T02:40:27.215Z,28.42
2023-02-02T02:43:02.452Z,26.42
2023-02-02T02:45:32.877Z,27.17
2023-02-02T02:48:04.732Z,25.20
2023-02-02T02:50:33.332Z,25.63
2023-02-02T02:53:07.637Z,27.88
2023-02-02T02:55:48.095Z,24.95
2023-02-02T02:58:23.293Z,24.80
2023-02-02T03:01:04.383Z,26.45
2023-02-02T03:03:51.460Z,25.60
2023-02-02T03:06:27.651Z,22.67
2023-02-02T03:09:02.108Z,22.88
2023-02-02T03:11:32.280Z,21.70
2023-02-02T03:14:03.773Z,24.15
2023-02-02T03:16:32.537Z,21.42
2023-02-02T03:19:02.679Z,24.35
2023-02-02T03:21:31.139Z,21.35
2023-02-02T03:24:00.039Z,20.83
2023-02-02T03:26:31.575Z,22.45
2023-02-02T03:29:00.121Z,21.05
2023-02-02T03:31:29.669Z,20.75
2023-02-02T03:33:58.338Z,24.10
2023-02-02T03:36:29.444Z,25.10
2023-02-02T03:38:58.268Z,25.02
2023-02-02T03:41:26.977Z,26.27
2023-02-02T03:43:58.857Z,25.92
2023-02-02T03:46:28.934Z,29.85
2023-02-02T03:48:58.994Z,45.63
2023-02-02T03:51:29.216Z,31.77
2023-02-02T03:53:57.668Z,31.73
2023-02-02T03:56:28.425Z,38.20
2023-02-02T03:58:56.881Z,29.73
2023-02-02T04:01:30.430Z,27.67
2023-02-02T04:03:59.904Z,30.52
2023-02-02T04:06:29.953Z,28.02
2023-02-02T04:08:58.418Z,30.45
2023-02-02T04:11:27.110Z,29.35
2023-02-02T04:13:55.790Z,31.42
2023-02-02T04:16:24.349Z,25.63
2023-02-02T04:18:56.917Z,34.17
2023-02-02T04:21:25.396Z,29.20
2023-02-02T04:23:57.135Z,29.10
2023-02-02T04:26:26.436Z,28.77
2023-02-02T04:28:56.435Z,29.83
2023-02-02T04:31:25.306Z,28.70
2023-02-02T04:33:53.764Z,30.08
2023-02-02T04:36:22.208Z,26.88
2023-02-02T04:38:51.705Z,28.98
2023-02-02T04:41:22.944Z,29.38
2023-02-02T04:43:51.386Z,33.38
2023-02-02T04:46:29.314Z,34.97
2023-02-02T04:48:59.003Z,42.13
2023-02-02T04:51:27.587Z,31.67
2023-02-02T04:53:56.091Z,35.00
2023-02-02T04:56:26.837Z,32.85
2023-02-02T04:58:56.679Z,29.05
2023-02-02T05:01:25.376Z,32.25
2023-02-02T05:03:54.141Z,32.75
2023-02-02T05:06:22.683Z,29.48
2023-02-02T05:08:51.767Z,32.75
2023-02-02T05:11:22.602Z,31.00
2023-02-02T05:13:58.858Z,29.95
2023-02-02T05:16:29.045Z,29.95
2023-02-02T05:18:59.673Z,31.60
2023-02-02T05:21:28.751Z,37.10
2023-02-02T05:23:57.310Z,38.05
2023-02-02T05:26:28.202Z,37.30
2023-02-02T05:29:01.225Z,31.77
2023-02-02T05:31:30.944Z,29.58
2023-02-02T05:33:59.562Z,31.58
2023-02-02T05:36:31.233Z,33.45
2023-02-02T05:39:00.569Z,33.97
2023-02-02T05:41:30.234Z,32.22
2023-02-02T05:44:02.050Z,29.50
2023-02-02T05:46:30.754Z,30.13
2023-02-02T05:49:00.793Z,30.70
2023-02-02T05:51:33.443Z,32.08
2023-02-02T05:54:06.703Z,28.67
2023-02-02T05:56:47.368Z,27.48
2023-02-02T05:59:17.643Z,30.50
2023-02-02T06:01:46.507Z,28.27
2023-02-02T06:04:15.471Z,27.90
2023-02-02T06:06:44.258Z,29.05
2023-02-02T06:09:13.229Z,27.83
2023-02-02T06:11:41.811Z,29.85
2023-02-02T06:14:10.271Z,28.60
2023-02-02T06:16:40.370Z,27.05
2023-02-02T06:19:11.226Z,28.73
2023-02-02T06:21:40.133Z,34.70
2023-02-02T06:24:09.094Z,25.77
2023-02-02T06:26:40.300Z,29.60
2023-02-02T06:29:13.025Z,29.17
2023-02-02T06:31:43.117Z,30.05
2023-02-02T06:34:14.735Z,31.83
2023-02-02T06:36:45.013Z,29.33
2023-02-02T06:39:29.824Z,26.73
2023-02-02T06:42:02.044Z,26.55
2023-02-02T06:44:37.398Z,29.42
2023-02-02T06:47:08.004Z,30.30
2023-02-02T06:49:36.664Z,25.25
2023-02-02T06:52:05.228Z,26.30
2023-02-02T06:54:33.725Z,31.48
2023-02-02T06:57:02.162Z,29.25
2023-02-02T06:59:30.654Z,25.92
2023-02-02T07:01:59.810Z,29.40
2023-02-02T07:04:29.953Z,29.10
2023-02-02T07:06:58.720Z,27.15
2023-02-02T07:09:27.340Z,27.85
2023-02-02T07:11:55.752Z,25.70
2023-02-02T07:14:26.673Z,26.90
2023-02-02T07:16:55.321Z,26.77
2023-02-02T07:19:26.510Z,25.13
2023-02-02T07:21:57.361Z,24.02
2023-02-02T07:24:25.964Z,30.73
2023-02-02T07:26:54.421Z,25.95
2023-02-02T07:29:25.291Z,27.70
2023-02-02T07:31:53.774Z,27.85
2023-02-02T07:34:22.545Z,26.35
2023-02-02T07:36:57.471Z,26.42
2023-02-02T07:39:28.873Z,24.70
2023-02-02T07:41:57.376Z,27.38
2023-02-02T07:44:33.663Z,27.90
2023-02-02T07:47:03.750Z,25.88
2023-02-02T07:49:34.100Z,29.65
2023-02-02T07:52:08.794Z,25.63
2023-02-02T07:54:37.223Z,25.85
2023-02-02T07:57:10.051Z,25.15
2023-02-02T07:59:38.784Z,25.95
2023-02-02T08:02:07.894Z,23.92
2023-02-02T08:04:36.552Z,27.05
2023-02-02T08:07:08.274Z,38.05
2023-02-02T08:09:36.804Z,27.23
2023-02-02T08:12:05.409Z,23.17
2023-02-02T08:14:34.344Z,26.27
2023-02-02T08:17:05.560Z,27.17
2023-02-02T08:19:36.693Z,28.60
2023-02-02T08:22:06.736Z,29.50
2023-02-02T08:24:40.592Z,31.63
2023-02-02T08:29:40.787Z,28.02
2023-02-02T08:32:09.978Z,31.42
2023-02-02T08:34:41.015Z,28.27
2023-02-02T08:37:10.986Z,25.58
2023-02-02T08:39:39.476Z,26.10
2023-02-02T08:42:08.965Z,25.60
2023-02-02T08:45:01.513Z,25.67
2023-02-02T08:47:30.333Z,25.65
2023-02-02T08:49:59.190Z,29.98
2023-02-02T08:52:29.095Z,24.52
2023-02-02T08:54:57.834Z,29.23
2023-02-02T08:57:26.285Z,30.27
2023-02-02T08:59:54.718Z,30.48
2023-02-02T09:02:23.449Z,33.88
2023-02-02T09:04:51.967Z,33.85
2023-02-02T09:07:21.274Z,30.98
2023-02-02T09:09:52.785Z,25.35
2023-02-02T09:12:21.315Z,26.30
2023-02-02T09:14:55.066Z,29.00
2023-02-02T09:17:24.302Z,27.20
2023-02-02T09:19:52.789Z,23.48
2023-02-02T09:22:22.248Z,27.20
2023-02-02T09:24:52.989Z,25.05
2023-02-02T09:27:22.600Z,25.90
2023-02-02T09:29:52.454Z,27.13
2023-02-02T09:32:21.518Z,28.23
2023-02-02T09:34:50.000Z,27.02
2023-02-02T09:37:18.983Z,26.63
2023-02-02T09:39:51.342Z,36.80
2023-02-02T09:42:32.430Z,26.02
2023-02-02T09:45:07.248Z,27.35
2023-02-02T09:47:55.567Z,26.10
2023-02-02T09:50:44.647Z,28.10
2023-02-02T09:53:21.543Z,25.13
2023-02-02T09:55:54.646Z,25.88
2023-02-02T09:58:36.916Z,27.33
2023-02-02T10:01:12.061Z,27.77
2023-02-02T10:03:46.627Z,23.55
2023-02-02T10:06:30.264Z,23.63
2023-02-02T10:09:08.710Z,24.63
2023-02-02T10:11:42.823Z,22.73
2023-02-02T10:14:21.385Z,26.02
2023-02-02T10:16:55.519Z,22.92
2023-02-02T10:19:29.405Z,25.25
2023-02-02T10:22:06.646Z,25.70
2023-02-02T10:24:36.451Z,27.15
2023-02-02T10:27:08.134Z,27.02
2023-02-02T10:29:50.598Z,28.17
2023-02-02T10:32:26.784Z,27.08
2023-02-02T10:35:34.292Z,30.58
2023-02-02T10:38:13.805Z,25.30
2023-02-02T10:40:53.402Z,24.40
2023-02-02T10:43:51.474Z,25.63
2023-02-02T10:46:29.132Z,26.00
2023-02-02T10:49:13.073Z,27.45
2023-02-02T10:51:42.285Z,27.33
2023-02-02T10:54:31.349Z,27.08
2023-02-02T10:57:02.250Z,25.02
2023-02-02T10:59:40.073Z,29.73
2023-02-02T11:02:20.749Z,26.90
2023-02-02T11:05:08.950Z,26.98
2023-02-02T11:07:38.313Z,23.70
2023-02-02T11:10:25.970Z,26.35
2023-02-02T11:13:01.867Z,28.17
2023-02-02T11:15:33.124Z,23.33
2023-02-02T11:18:16.646Z,24.55
2023-02-02T11:20:54.428Z,23.48
2023-02-02T11:23:25.518Z,26.77
2023-02-02T11:26:06.518Z,25.83
2023-02-02T11:28:42.771Z,24.63
2023-02-02T11:31:13.223Z,25.15
2023-02-02T11:33:45.688Z,25.25
2023-02-02T11:36:23.237Z,25.15
2023-02-02T11:39:17.725Z,25.48
2023-02-02T11:41:46.576Z,24.70
2023-02-02T11:44:25.799Z,25.40
2023-02-02T11:46:56.942Z,23.05
2023-02-02T11:49:27.734Z,26.02
2023-02-02T11:52:07.523Z,23.48
2023-02-02T11:54:38.444Z,22.98
2023-02-02T11:57:11.711Z,27.08
2023-02-02T11:59:44.741Z,25.45
2023-02-02T12:02:34.713Z,29.05
2023-02-02T12:05:35.071Z,29.40
2023-02-02T12:08:09.288Z,24.77
2023-02-02T12:10:52.316Z,26.10
2023-02-02T12:13:35.488Z,26.80
2023-02-02T12:16:28.166Z,24.83
2023-02-02T12:19:30.055Z,28.42
2023-02-02T12:22:11.493Z,24.52
2023-02-02T12:24:51.085Z,27.73
2023-02-02T12:27:34.163Z,26.58
2023-02-02T12:30:19.810Z,29.13
2023-02-02T12:33:27.049Z,26.38
2023-02-02T12:36:13.714Z,23.33
2023-02-02T12:39:14.866Z,31.70
2023-02-02T12:42:05.228Z,26.83
2023-02-02T12:44:44.747Z,28.55
2023-02-02T12:47:23.656Z,29.10
2023-02-02T12:50:05.496Z,26.65
2023-02-02T12:52:56.340Z,26.35
2023-02-02T12:55:39.429Z,27.08
2023-02-02T12:58:15.828Z,30.35
2023-02-02T13:01:06.366Z,28.63
2023-02-02T13:03:46.921Z,26.70
2023-02-02T13:06:45.018Z,28.50
2023-02-02T13:09:19.929Z,29.58
2023-02-02T13:11:57.497Z,29.50
2023-02-02T13:14:34.024Z,31.45
2023-02-02T13:17:07.199Z,29.42
2023-02-02T13:19:41.682Z,30.92
2023-02-02T13:22:16.846Z,29.33
2023-02-02T13:24:52.268Z,26.50
2023-02-02T13:27:23.987Z,27.85
2023-02-02T13:29:57.033Z,34.35
2023-02-02T13:32:30.274Z,33.90
2023-02-02T13:35:03.909Z,34.75
2023-02-02T13:37:38.073Z,29.27
2023-02-02T13:40:18.569Z,30.23
2023-02-02T13:42:57.605Z,32.75
2023-02-02T13:45:43.766Z,33.97
2023-02-02T13:48:24.266Z,35.45
2023-02-02T13:51:18.481Z,33.08
2023-02-02T13:54:06.337Z,35.00
2023-02-02T13:56:49.195Z,36.33
2023-02-02T13:59:53.966Z,33.75
2023-02-02T14:02:31.233Z,33.78
2023-02-02T14:05:02.448Z,32.22
2023-02-02T14:07:41.920Z,32.47
2023-02-02T14:10:25.988Z,36.03
2023-02-02T14:12:56.559Z,34.97
2023-02-02T14:15:40.539Z,33.25
2023-02-02T14:18:11.538Z,32.30
2023-02-02T14:20:49.960Z,35.67
2023-02-02T14:23:52.935Z,33.22
2023-02-02T14:26:42.007Z,29.92
2023-02-02T14:29:53.610Z,29.67
2023-02-02T14:32:34.830Z,31.52
2023-02-02T14:35:50.419Z,31.35
2023-02-02T14:38:35.760Z,32.47
2023-02-02T14:41:15.284Z,31.65
2023-02-02T14:43:50.433Z,33.50
2023-02-02T14:46:41.064Z,33.15
2023-02-02T14:49:27.718Z,30.80
2023-02-02T14:54:50.745Z,37.80
2023-02-02T14:57:26.031Z,30.45
2023-02-02T14:59:56.708Z,34.90
2023-02-02T15:02:34.227Z,30.40
2023-02-02T15:05:42.047Z,32.28
2023-02-02T15:08:27.703Z,35.20
2023-02-02T15:11:28.738Z,31.05
2023-02-02T15:14:22.943Z,32.78
2023-02-02T15:16:55.359Z,32.17
2023-02-02T15:19:35.388Z,29.75
2023-02-02T15:22:22.881Z,28.75
2023-02-02T15:24:54.200Z,38.05
2023-02-02T15:27:27.755Z,35.33
2023-02-02T15:30:03.389Z,35.17
2023-02-02T15:32:34.180Z,30.15
2023-02-02T15:35:07.257Z,31.27
2023-02-02T15:37:41.885Z,32.90
2023-02-02T15:40:16.205Z,32.25
2023-02-02T15:42:54.447Z,32.88
2023-02-02T15:45:38.084Z,31.73
2023-02-02T15:48:19.850Z,33.10
2023-02-02T15:50:51.321Z,35.08
2023-02-02T15:53:23.378Z,32.65
2023-02-02T15:55:54.332Z,29.73
2023-02-02T15:58:34.242Z,29.38
2023-02-02T16:01:20.260Z,34.38
2023-02-02T16:04:17.084Z,30.92
2023-02-02T16:06:47.141Z,33.45
2023-02-02T16:09:29.794Z,33.28
2023-02-02T16:12:01.636Z,32.13
2023-02-02T16:14:34.359Z,33.13
2023-02-02T16:17:20.204Z,32.55
2023-02-02T16:19:57.995Z,28.88
2023-02-02T16:22:28.295Z,30.60
2023-02-02T16:24:59.691Z,33.63
2023-02-02T16:27:31.292Z,32.92
2023-02-02T16:30:09.243Z,34.38
2023-02-02T16:32:40.335Z,29.15
2023-02-02T16:35:33.408Z,34.92
2023-02-02T16:38:17.063Z,55.65
2023-02-02T16:40:45.694Z,31.88
2023-02-02T16:43:19.805Z,36.85
2023-02-02T16:45:52.933Z,29.80
2023-02-02T16:48:30.151Z,33.42
2023-02-02T16:51:27.573Z,26.42
2023-02-02T16:54:13.747Z,35.03
2023-02-02T16:56:45.248Z,29.88
2023-02-02T16:59:22.116Z,30.75
2023-02-02T17:02:00.122Z,32.30
2023-02-02T17:04:32.395Z,33.67
2023-02-02T17:07:08.611Z,32.92
2023-02-02T17:09:42.355Z,31.45
2023-02-02T17:12:37.394Z,28.48
2023-02-02T17:15:34.813Z,32.47
2023-02-02T17:18:08.584Z,30.83
2023-02-02T17:20:46.722Z,31.33
2023-02-02T17:23:23.200Z,33.92
2023-02-02T17:25:54.146Z,34.17
2023-02-02T17:28:30.929Z,43.33
2023-02-02T17:31:11.148Z,32.75
2023-02-02T17:33:55.734Z,32.67
2023-02-02T17:36:25.351Z,33.85
2023-02-02T17:38:55.122Z,32.33
2023-02-02T17:41:30.225Z,34.15
2023-02-02T17:43:58.976Z,32.38
2023-02-02T17:46:31.266Z,34.80
2023-02-02T17:49:04.883Z,30.08
2023-02-02T17:51:34.432Z,32.30
2023-02-02T17:54:02.914Z,30.60
2023-02-02T17:56:31.488Z,34.95
2023-02-02T17:59:01.697Z,29.98
2023-02-02T18:01:32.449Z,32.22
2023-02-02T18:04:04.615Z,32.80
2023-02-02T18:06:33.471Z,37.72
2023-02-02T18:09:02.300Z,36.10
2023-02-02T18:11:31.236Z,32.33
2023-02-02T18:13:59.918Z,34.40
2023-02-02T18:16:30.880Z,34.15
2023-02-02T18:18:59.700Z,34.13
2023-02-02T18:21:32.514Z,37.25
2023-02-02T18:24:01.347Z,41.90
2023-02-02T18:26:31.489Z,33.72
2023-02-02T18:29:02.175Z,31.90
2023-02-02T18:31:31.540Z,30.52
2023-02-02T18:34:00.217Z,32.40
2023-02-02T18:36:30.250Z,32.22
2023-02-02T18:38:58.855Z,30.98
2023-02-02T18:41:27.310Z,30.92
2023-02-02T18:43:58.605Z,31.70
2023-02-02T18:46:27.829Z,37.33
2023-02-02T18:48:57.526Z,32.90
2023-02-02T18:51:35.195Z,29.88
2023-02-02T18:54:05.140Z,32.40
2023-02-02T18:56:35.447Z,37.88
2023-02-02T18:59:07.099Z,36.40
2023-02-02T19:01:36.933Z,33.08
2023-02-02T19:04:06.167Z,33.85
2023-02-02T19:06:53.912Z,33.08
2023-02-02T19:09:24.946Z,33.95
2023-02-02T19:11:55.819Z,30.95
2023-02-02T19:14:26.784Z,35.30
2023-02-02T19:17:02.714Z,33.95
2023-02-02T19:19:34.742Z,38.17
2023-02-02T19:22:13.924Z,37.42
2023-02-02T19:24:42.514Z,36.45
2023-02-02T19:27:18.358Z,35.03
2023-02-02T19:29:50.901Z,38.72
2023-02-02T19:32:22.284Z,37.70
2023-02-02T19:34:53.189Z,33.25
2023-02-02T19:37:27.434Z,37.25
2023-02-02T19:40:26.534Z,35.17
2023-02-02T19:42:59.913Z,32.40
2023-02-02T19:45:33.853Z,34.95
2023-02-02T19:48:14.644Z,34.10
2023-02-02T19:50:43.100Z,35.90
2023-02-02T19:53:20.418Z,33.55
2023-02-02T19:55:51.361Z,33.13
2023-02-02T19:58:22.290Z,37.38
2023-02-02T20:00:53.147Z,33.50
2023-02-02T20:03:24.663Z,41.70
2023-02-02T20:05:54.839Z,44.10
2023-02-02T20:08:27.907Z,33.58
2023-02-02T20:11:00.765Z,37.78
2023-02-02T20:13:40.056Z,33.40
2023-02-02T20:16:13.004Z,35.38
2023-02-02T20:18:44.204Z,35.72
2023-02-02T20:21:23.952Z,37.33
2023-02-02T20:23:54.027Z,32.53
2023-02-02T20:26:26.105Z,35.38
2023-02-02T20:28:56.529Z,35.15
2023-02-02T20:31:27.361Z,46.03
2023-02-02T20:33:57.748Z,37.92
2023-02-02T20:36:38.108Z,40.47
2023-02-02T20:39:28.699Z,33.95
2023-02-02T20:41:58.990Z,35.30
2023-02-02T20:44:28.708Z,32.17
2023-02-02T20:46:58.900Z,36.40
2023-02-02T20:49:29.785Z,36.10
2023-02-02T20:52:00.051Z,38.15
2023-02-02T20:54:30.799Z,32.03
2023-02-02T20:56:59.370Z,38.17
2023-02-02T20:59:27.845Z,34.33
2023-02-02T21:01:56.453Z,37.03
2023-02-02T21:04:24.972Z,35.65
2023-02-02T21:06:55.419Z,33.75
2023-02-02T21:09:23.880Z,32.95
2023-02-02T21:11:53.939Z,32.20
2023-02-02T21:14:22.992Z,34.85
2023-02-02T21:16:55.418Z,36.70
2023-02-02T21:19:31.210Z,33.30
2023-02-02T21:21:59.817Z,38.17
2023-02-02T21:24:28.355Z,30.02
2023-02-02T21:26:59.591Z,33.03
2023-02-02T21:29:31.368Z,31.98
2023-02-02T21:32:02.804Z,33.20
2023-02-02T21:34:33.854Z,32.20
2023-02-02T21:37:02.404Z,33.38
2023-02-02T21:39:33.690Z,34.30
2023-02-02T21:42:14.364Z,32.08
2023-02-02T21:44:45.938Z,33.95
2023-02-02T21:47:27.712Z,35.28
2023-02-02T21:49:59.386Z,29.85
2023-02-02T21:52:34.303Z,31.92
2023-02-02T21:55:28.653Z,31.98
2023-02-02T21:58:01.107Z,35.10
2023-02-02T22:00:34.601Z,36.17
2023-02-02T22:03:03.837Z,33.33
2023-02-02T22:05:36.652Z,33.00
2023-02-02T22:08:22.146Z,30.05
2023-02-02T22:10:50.894Z,36.25
2023-02-02T22:13:26.714Z,34.30
2023-02-02T22:15:55.512Z,35.05
2023-02-02T22:18:25.989Z,33.10
2023-02-02T22:20:56.677Z,31.33
2023-02-02T22:23:28.745Z,35.03
2023-02-02T22:25:59.211Z,37.33
2023-02-02T22:28:34.090Z,36.20
2023-02-02T22:31:02.659Z,35.47
2023-02-02T22:33:31.274Z,31.50
2023-02-02T22:35:59.650Z,35.95
2023-02-02T22:38:28.208Z,33.38
2023-02-02T22:40:56.999Z,33.05
2023-02-02T22:43:25.964Z,35.85
2023-02-02T22:45:56.115Z,31.63
2023-02-02T22:48:24.830Z,33.40
2023-02-02T22:50:53.598Z,32.10
2023-02-02T22:53:22.125Z,36.30
2023-02-02T22:55:56.449Z,33.05
2023-02-02T22:58:26.150Z,36.03
2023-02-02T23:00:56.080Z,35.97
2023-02-02T23:03:24.596Z,33.50
2023-02-02T23:05:53.109Z,36.00
2023-02-02T23:08:21.487Z,33.50
2023-02-02T23:10:49.947Z,38.33
2023-02-02T23:13:18.389Z,34.45
2023-02-02T23:15:46.853Z,37.17
2023-02-02T23:18:19.254Z,32.97
2023-02-02T23:20:48.920Z,38.33
2023-02-02T23:23:17.534Z,35.85
2023-02-02T23:25:45.972Z,38.35
2023-02-02T23:28:15.694Z,34.20
2023-02-02T23:30:44.223Z,33.50
2023-02-02T23:33:12.749Z,37.50
2023-02-02T23:35:43.739Z,35.15
2023-02-02T23:38:13.565Z,36.53
2023-02-02T23:40:42.068Z,36.65
2023-02-02T23:43:10.598Z,37.60
2023-02-02T23:45:40.080Z,31.30
2023-02-02T23:48:10.930Z,31.92
2023-02-02T23:50:40.009Z,34.33
2023-02-02T23:53:11.658Z,36.50
2023-02-02T23:55:41.898Z,34.25
2023-02-02T23:58:11.447Z,31.27
